createdAt,value
2022-09-25T00:00:31.137Z,1.60
2022-09-25T00:03:06.732Z,1.37
2022-09-25T00:05:40.541Z,1.60
2022-09-25T00:08:13.171Z,1.80
2022-09-25T00:10:50.856Z,1.53
2022-09-25T00:13:23.703Z,1.80
2022-09-25T00:15:57.621Z,1.63
2022-09-25T00:18:47.945Z,1.53
2022-09-25T00:21:20.257Z,2.03
2022-09-25T00:23:52.136Z,1.67
2022-09-25T00:26:23.329Z,1.87
2022-09-25T00:28:54.425Z,1.90
2022-09-25T00:31:28.242Z,2.13
2022-09-25T00:34:04.574Z,2.30
2022-09-25T00:36:36.584Z,2.10
2022-09-25T00:39:08.857Z,2.47
2022-09-25T00:41:42.225Z,1.90
2022-09-25T00:44:57.635Z,2.40
2022-09-25T00:47:51.709Z,2.30
2022-09-25T00:50:32.243Z,2.20
2022-09-25T00:53:08.690Z,2.57
2022-09-25T00:55:41.991Z,2.43
2022-09-25T00:58:15.513Z,2.50
2022-09-25T01:00:47.971Z,2.40
2022-09-25T01:03:21.512Z,2.13
2022-09-25T01:05:56.152Z,2.83
2022-09-25T01:08:30.342Z,2.63
2022-09-25T01:11:02.376Z,3.10
2022-09-25T01:13:34.751Z,3.00
2022-09-25T01:16:12.720Z,2.70
2022-09-25T01:18:55.458Z,2.37
2022-09-25T01:21:37.171Z,2.97
2022-09-25T01:24:53.262Z,2.60
2022-09-25T01:27:52.700Z,2.90
2022-09-25T01:30:27.009Z,3.17
2022-09-25T01:33:06.573Z,3.07
2022-09-25T01:35:45.896Z,2.90
2022-09-25T01:38:27.880Z,2.93
2022-09-25T01:41:05.753Z,2.83
2022-09-25T01:43:40.994Z,2.47
2022-09-25T01:46:20.301Z,2.80
2022-09-25T01:48:55.929Z,2.50
2022-09-25T01:51:30.747Z,2.63
2022-09-25T01:54:09.251Z,3.07
2022-09-25T01:56:45.571Z,3.17
2022-09-25T01:59:21.930Z,2.90
2022-09-25T02:01:57.819Z,2.53
2022-09-25T02:04:37.123Z,2.40
2022-09-25T02:07:12.301Z,2.50
2022-09-25T02:09:48.120Z,2.77
2022-09-25T02:12:23.207Z,2.77
2022-09-25T02:14:58.079Z,2.43
2022-09-25T02:17:53.656Z,3.10
2022-09-25T02:20:37.789Z,3.17
2022-09-25T02:23:18.016Z,3.07
2022-09-25T02:25:55.925Z,2.67
2022-09-25T02:28:27.619Z,2.87
2022-09-25T02:31:02.314Z,2.93
2022-09-25T02:33:40.426Z,2.80
2022-09-25T02:36:21.517Z,3.00
2022-09-25T02:38:57.539Z,2.77
2022-09-25T02:41:45.018Z,2.97
2022-09-25T02:44:30.680Z,2.93
2022-09-25T02:52:37.357Z,3.20
2022-09-25T02:55:14.430Z,3.17
2022-09-25T02:57:55.134Z,2.97
2022-09-25T03:00:27.690Z,2.90
2022-09-25T03:03:01.464Z,3.90
2022-09-25T03:05:34.076Z,4.63
2022-09-25T03:08:25.199Z,5.13
2022-09-25T03:10:57.147Z,6.30
2022-09-25T03:13:32.936Z,5.20
2022-09-25T03:16:07.542Z,5.73
2022-09-25T03:18:39.486Z,6.10
2022-09-25T03:21:11.424Z,7.27
2022-09-25T03:23:45.670Z,11.70
2022-09-25T03:26:17.269Z,16.50
2022-09-25T03:28:51.294Z,10.40
2022-09-25T03:31:22.477Z,18.90
2022-09-25T03:33:53.874Z,6.50
2022-09-25T03:36:26.419Z,3.80
2022-09-25T03:39:01.826Z,6.67
2022-09-25T03:41:36.102Z,7.77
2022-09-25T03:44:08.491Z,5.90
2022-09-25T03:46:40.678Z,3.80
2022-09-25T03:49:12.333Z,5.70
2022-09-25T03:51:45.264Z,5.77
2022-09-25T03:54:21.785Z,6.20
2022-09-25T03:56:54.229Z,5.17
2022-09-25T03:59:25.666Z,4.23
2022-09-25T04:01:58.399Z,4.10
2022-09-25T04:04:30.989Z,4.07
2022-09-25T04:07:03.378Z,5.03
2022-09-25T04:09:39.040Z,5.03
2022-09-25T04:12:10.005Z,5.33
2022-09-25T04:14:43.161Z,4.70
2022-09-25T04:17:14.415Z,3.77
2022-09-25T04:19:45.906Z,5.70
2022-09-25T04:22:17.221Z,3.87
2022-09-25T04:24:54.365Z,6.97
2022-09-25T04:27:26.761Z,6.10
2022-09-25T04:29:58.675Z,5.80
2022-09-25T04:32:46.370Z,5.73
2022-09-25T04:35:18.695Z,10.73
2022-09-25T04:37:50.604Z,6.50
2022-09-25T04:40:24.901Z,12.10
2022-09-25T04:43:00.512Z,10.53
2022-09-25T04:45:33.909Z,6.73
2022-09-25T04:48:06.620Z,10.70
2022-09-25T04:50:38.905Z,13.53
2022-09-25T04:53:10.364Z,12.03
2022-09-25T04:55:44.314Z,9.50
2022-09-25T04:58:17.298Z,7.37
2022-09-25T05:00:49.237Z,4.93
2022-09-25T05:03:20.937Z,5.73
2022-09-25T05:05:53.801Z,3.40
2022-09-25T05:08:27.582Z,3.10
2022-09-25T05:11:01.471Z,2.27
2022-09-25T05:13:32.509Z,2.83
2022-09-25T05:16:04.062Z,2.80
2022-09-25T05:18:35.595Z,2.47
2022-09-25T05:21:08.660Z,2.73
2022-09-25T05:23:39.961Z,2.97
2022-09-25T05:26:14.753Z,2.70
2022-09-25T05:28:47.262Z,2.63
2022-09-25T05:31:19.883Z,2.50
2022-09-25T05:33:52.756Z,2.43
2022-09-25T05:36:24.389Z,2.47
2022-09-25T05:38:58.053Z,2.60
2022-09-25T05:41:32.093Z,2.40
2022-09-25T05:44:04.574Z,2.80
2022-09-25T05:46:37.447Z,2.60
2022-09-25T05:49:09.405Z,2.47
2022-09-25T05:51:44.023Z,2.73
2022-09-25T05:54:15.301Z,2.67
2022-09-25T05:56:49.230Z,2.97
2022-09-25T05:59:20.718Z,2.70
2022-09-25T06:01:52.656Z,2.93
2022-09-25T06:04:24.000Z,2.87
2022-09-25T06:06:55.649Z,2.80
2022-09-25T06:09:26.839Z,2.83
2022-09-25T06:12:02.983Z,4.63
2022-09-25T06:14:34.095Z,3.40
2022-09-25T06:17:05.901Z,3.07
2022-09-25T06:19:38.144Z,3.17
2022-09-25T06:22:09.458Z,2.80
2022-09-25T06:24:43.524Z,3.07
2022-09-25T06:27:17.447Z,3.07
2022-09-25T06:29:50.972Z,3.40
2022-09-25T06:32:24.260Z,2.33
2022-09-25T06:34:55.728Z,2.77
2022-09-25T06:37:26.656Z,2.93
2022-09-25T06:39:59.614Z,2.73
2022-09-25T06:42:36.576Z,3.17
2022-09-25T06:45:08.197Z,2.87
2022-09-25T06:47:39.140Z,2.70
2022-09-25T06:50:14.072Z,2.67
2022-09-25T06:52:46.512Z,2.57
2022-09-25T06:55:20.787Z,2.50
2022-09-25T06:57:56.014Z,2.43
2022-09-25T07:00:27.420Z,2.40
2022-09-25T07:03:17.308Z,2.93
2022-09-25T07:05:49.540Z,2.63
2022-09-25T07:08:22.868Z,2.47
2022-09-25T07:10:55.516Z,2.57
2022-09-25T07:13:30.956Z,2.50
2022-09-25T07:16:04.914Z,2.70
2022-09-25T07:18:36.589Z,2.20
2022-09-25T07:21:10.175Z,2.43
2022-09-25T07:23:43.912Z,2.07
2022-09-25T07:26:17.340Z,2.40
2022-09-25T07:29:04.689Z,2.77
2022-09-25T07:31:38.809Z,2.23
2022-09-25T07:34:13.194Z,2.20
2022-09-25T07:36:46.360Z,2.10
2022-09-25T07:39:19.046Z,1.97
2022-09-25T07:41:50.139Z,2.37
2022-09-25T07:44:29.022Z,2.17
2022-09-25T07:47:02.278Z,2.40
2022-09-25T07:49:34.958Z,1.90
2022-09-25T07:52:06.931Z,2.13
2022-09-25T07:54:41.160Z,2.20
2022-09-25T07:57:14.102Z,2.00
2022-09-25T07:59:47.967Z,2.17
2022-09-25T08:02:19.569Z,1.90
2022-09-25T08:04:51.663Z,2.07
2022-09-25T08:07:23.162Z,1.77
2022-09-25T08:09:54.278Z,2.03
2022-09-25T08:12:26.808Z,2.10
2022-09-25T08:15:01.116Z,1.90
2022-09-25T08:17:35.646Z,1.73
2022-09-25T08:20:08.223Z,1.90
2022-09-25T08:22:40.090Z,2.00
2022-09-25T08:25:12.254Z,1.80
2022-09-25T08:27:44.287Z,1.63
2022-09-25T08:30:20.380Z,1.83
2022-09-25T08:32:52.417Z,2.00
2022-09-25T08:35:24.262Z,1.70
2022-09-25T08:37:55.280Z,2.00
2022-09-25T08:40:32.997Z,2.50
2022-09-25T08:43:05.618Z,2.00
2022-09-25T08:46:00.027Z,1.77
2022-09-25T08:48:59.917Z,2.00
2022-09-25T08:51:32.412Z,1.97
2022-09-25T08:54:04.430Z,1.97
2022-09-25T08:56:38.953Z,2.03
2022-09-25T08:59:27.701Z,1.80
2022-09-25T09:02:05.395Z,2.00
2022-09-25T09:04:42.046Z,1.90
2022-09-25T09:07:28.439Z,2.30
2022-09-25T09:10:07.408Z,2.93
2022-09-25T09:12:46.353Z,2.57
2022-09-25T09:15:26.940Z,1.90
2022-09-25T09:18:02.507Z,2.13
2022-09-25T09:20:43.699Z,2.07
2022-09-25T09:23:23.116Z,2.33
2022-09-25T09:26:05.478Z,2.57
2022-09-25T09:29:02.169Z,2.37
2022-09-25T09:31:41.114Z,2.43
2022-09-25T09:34:53.068Z,2.60
2022-09-25T09:37:26.490Z,2.20
2022-09-25T09:40:16.021Z,2.10
2022-09-25T09:42:52.957Z,2.20
2022-09-25T09:45:31.273Z,2.30
2022-09-25T09:48:09.928Z,2.13
2022-09-25T09:50:52.390Z,2.47
2022-09-25T09:53:32.286Z,2.67
2022-09-25T09:56:09.242Z,2.30
2022-09-25T09:58:48.561Z,2.00
2022-09-25T10:04:18.984Z,2.50
2022-09-25T10:06:57.653Z,2.07
2022-09-25T10:09:30.531Z,2.40
2022-09-25T10:12:08.445Z,2.80
2022-09-25T10:14:44.356Z,2.40
2022-09-25T10:17:16.997Z,2.30
2022-09-25T10:19:59.425Z,2.60
2022-09-25T10:22:41.165Z,2.80
2022-09-25T10:25:12.791Z,2.83
2022-09-25T10:27:47.081Z,2.80
2022-09-25T10:30:33.981Z,2.57
2022-09-25T10:33:15.219Z,2.83
2022-09-25T10:35:47.949Z,2.43
2022-09-25T10:38:34.885Z,2.50
2022-09-25T10:41:10.328Z,2.60
2022-09-25T10:43:56.261Z,2.90
2022-09-25T10:46:49.055Z,2.67
2022-09-25T10:49:39.226Z,2.73
2022-09-25T10:52:13.302Z,2.60
2022-09-25T10:54:47.792Z,2.73
2022-09-25T10:57:27.849Z,2.60
2022-09-25T11:00:00.760Z,2.63
2022-09-25T11:02:39.230Z,2.90
2022-09-25T11:05:19.263Z,2.67
2022-09-25T11:07:53.434Z,2.83
2022-09-25T11:10:28.512Z,2.80
2022-09-25T11:13:00.845Z,2.63
2022-09-25T11:15:31.796Z,3.13
2022-09-25T11:18:04.464Z,2.50
2022-09-25T11:20:36.121Z,3.00
2022-09-25T11:23:22.989Z,2.80
2022-09-25T11:26:07.020Z,2.67
2022-09-25T11:28:45.365Z,3.20
2022-09-25T11:31:26.448Z,2.60
2022-09-25T11:34:08.890Z,3.43
2022-09-25T11:36:45.110Z,3.47
2022-09-25T11:39:41.129Z,2.87
2022-09-25T11:42:21.841Z,3.00
2022-09-25T11:45:03.873Z,3.10
2022-09-25T11:47:41.788Z,2.77
2022-09-25T11:50:18.843Z,2.77
2022-09-25T11:53:01.023Z,2.80
2022-09-25T11:55:56.718Z,3.27
2022-09-25T11:58:47.973Z,2.87
2022-09-25T12:01:29.679Z,3.30
2022-09-25T12:04:41.696Z,3.47
2022-09-25T12:07:34.892Z,3.70
2022-09-25T12:10:21.763Z,3.00
2022-09-25T12:13:02.695Z,3.40
2022-09-25T12:15:50.411Z,3.50
2022-09-25T12:18:37.227Z,3.27
2022-09-25T12:21:16.925Z,3.70
2022-09-25T12:23:55.734Z,3.63
2022-09-25T12:26:33.484Z,3.40
2022-09-25T12:29:21.167Z,3.90
2022-09-25T12:32:01.494Z,4.57
2022-09-25T12:34:47.318Z,4.50
2022-09-25T12:37:27.511Z,4.90
2022-09-25T12:40:05.139Z,5.30
2022-09-25T12:42:45.595Z,5.83
2022-09-25T12:45:24.249Z,5.90
2022-09-25T12:48:10.869Z,5.97
2022-09-25T12:50:49.768Z,7.00
2022-09-25T12:53:32.081Z,6.17
2022-09-25T12:56:13.232Z,7.47
2022-09-25T12:59:04.008Z,6.30
2022-09-25T13:01:46.907Z,6.70
2022-09-25T13:04:46.293Z,7.13
2022-09-25T13:07:23.538Z,7.00
2022-09-25T13:09:57.812Z,6.87
2022-09-25T13:12:36.747Z,7.77
2022-09-25T13:15:11.931Z,6.90
2022-09-25T13:17:44.012Z,7.13
2022-09-25T13:20:50.440Z,6.47
2022-09-25T13:23:30.457Z,6.37
2022-09-25T13:26:06.329Z,6.60
2022-09-25T13:28:41.792Z,7.50
2022-09-25T13:31:17.608Z,6.27
2022-09-25T13:33:53.111Z,6.17
2022-09-25T13:36:38.998Z,6.80
2022-09-25T13:39:36.159Z,6.73
2022-09-25T13:42:09.681Z,6.23
2022-09-25T13:44:53.653Z,6.13
2022-09-25T13:47:54.811Z,5.43
2022-09-25T13:50:38.886Z,6.30
2022-09-25T13:53:53.205Z,5.73
2022-09-25T13:56:29.763Z,6.33
2022-09-25T13:59:26.989Z,6.07
2022-09-25T14:02:25.613Z,6.13
2022-09-25T14:04:58.251Z,5.93
2022-09-25T14:07:32.844Z,7.33
2022-09-25T14:10:06.430Z,7.50
2022-09-25T14:12:45.529Z,7.90
2022-09-25T14:15:36.417Z,9.23
2022-09-25T14:18:12.492Z,8.90
2022-09-25T14:20:46.155Z,9.50
2022-09-25T14:23:21.962Z,11.27
2022-09-25T14:26:06.173Z,11.23
2022-09-25T14:28:46.757Z,12.20
2022-09-25T14:31:32.683Z,10.77
2022-09-25T14:34:30.986Z,11.33
2022-09-25T14:37:13.485Z,12.10
2022-09-25T14:39:55.512Z,11.03
2022-09-25T14:43:00.735Z,11.13
2022-09-25T14:45:49.958Z,11.20
2022-09-25T14:48:26.521Z,11.13
2022-09-25T14:51:01.129Z,10.50
2022-09-25T14:53:38.847Z,11.33
2022-09-25T14:56:16.387Z,10.20
2022-09-25T14:58:56.795Z,9.23
2022-09-25T15:01:31.145Z,9.20
2022-09-25T15:04:06.439Z,10.03
2022-09-25T15:06:40.113Z,9.53
2022-09-25T15:09:32.170Z,9.70
2022-09-25T15:12:11.459Z,9.67
2022-09-25T15:14:59.268Z,8.67
2022-09-25T15:17:30.203Z,8.83
2022-09-25T15:20:03.825Z,8.83
2022-09-25T15:22:40.389Z,9.13
2022-09-25T15:25:19.790Z,8.47
2022-09-25T15:27:51.960Z,8.63
2022-09-25T15:30:28.415Z,8.23
2022-09-25T15:33:01.015Z,8.83
2022-09-25T15:35:33.722Z,8.47
2022-09-25T15:38:14.695Z,7.10
2022-09-25T15:40:59.378Z,7.27
2022-09-25T15:43:32.457Z,7.33
2022-09-25T15:46:36.679Z,6.83
2022-09-25T15:49:10.272Z,7.27
2022-09-25T15:51:41.932Z,6.77
2022-09-25T15:54:37.820Z,6.00
2022-09-25T15:57:14.392Z,5.60
2022-09-25T16:00:05.078Z,6.37
2022-09-25T16:02:57.753Z,6.27
2022-09-25T16:05:34.391Z,5.97
2022-09-25T16:08:33.076Z,6.10
2022-09-25T16:11:18.295Z,6.43
2022-09-25T16:13:53.047Z,6.60
2022-09-25T16:16:30.758Z,5.70
2022-09-25T16:19:22.493Z,5.40
2022-09-25T16:21:54.125Z,5.07
2022-09-25T16:24:27.649Z,5.37
2022-09-25T16:27:00.682Z,5.20
2022-09-25T16:29:33.568Z,5.07
2022-09-25T16:32:07.652Z,5.30
2022-09-25T16:34:44.520Z,4.93
2022-09-25T16:37:30.918Z,5.27
2022-09-25T16:40:25.991Z,5.60
2022-09-25T16:42:59.798Z,5.40
2022-09-25T16:45:34.945Z,5.30
2022-09-25T16:48:33.892Z,4.33
2022-09-25T16:51:14.302Z,4.70
2022-09-25T16:53:50.164Z,4.53
2022-09-25T16:56:25.876Z,4.23
2022-09-25T16:58:57.665Z,4.37
2022-09-25T17:01:30.661Z,4.13
2022-09-25T17:04:02.166Z,4.00
2022-09-25T17:06:43.030Z,4.37
2022-09-25T17:09:15.901Z,4.03
2022-09-25T17:11:50.823Z,4.10
2022-09-25T17:14:26.669Z,4.10
2022-09-25T17:16:59.969Z,4.13
2022-09-25T17:19:31.772Z,3.50
2022-09-25T17:22:04.858Z,4.27
2022-09-25T17:24:35.729Z,3.93
2022-09-25T17:27:13.240Z,4.20
2022-09-25T17:29:44.595Z,4.60
2022-09-25T17:32:18.450Z,5.00
2022-09-25T17:34:51.205Z,4.30
2022-09-25T17:37:25.146Z,3.90
2022-09-25T17:39:56.712Z,4.70
2022-09-25T17:42:28.706Z,3.77
2022-09-25T17:45:00.202Z,4.50
2022-09-25T17:47:32.832Z,4.50
2022-09-25T17:50:04.671Z,4.10
2022-09-25T17:52:37.730Z,4.10
2022-09-25T17:55:18.242Z,4.40
2022-09-25T17:57:49.655Z,10.73
2022-09-25T18:00:21.570Z,4.40
2022-09-25T18:02:53.978Z,5.00
2022-09-25T18:05:26.805Z,4.10
2022-09-25T18:07:59.952Z,4.27
2022-09-25T18:10:33.764Z,3.90
2022-09-25T18:13:05.142Z,4.30
2022-09-25T18:15:38.929Z,4.30
2022-09-25T18:18:10.048Z,4.27
2022-09-25T18:20:57.201Z,4.37
2022-09-25T18:23:34.890Z,4.70
2022-09-25T18:26:09.103Z,6.20
2022-09-25T18:28:40.799Z,4.83
2022-09-25T18:31:19.931Z,6.13
2022-09-25T18:33:51.388Z,5.60
2022-09-25T18:36:22.687Z,5.20
2022-09-25T18:38:56.618Z,4.73
2022-09-25T18:41:28.999Z,6.17
2022-09-25T18:44:01.830Z,5.63
2022-09-25T18:46:33.399Z,6.20
2022-09-25T18:49:05.805Z,5.57
2022-09-25T18:51:38.447Z,6.40
2022-09-25T18:54:15.152Z,5.93
2022-09-25T18:56:46.387Z,5.80
2022-09-25T18:59:18.247Z,6.33
2022-09-25T19:01:49.362Z,7.00
2022-09-25T19:04:22.211Z,7.07
2022-09-25T19:06:53.842Z,6.83
2022-09-25T19:09:28.699Z,6.57
2022-09-25T19:12:00.309Z,6.90
2022-09-25T19:14:32.162Z,7.00
2022-09-25T19:17:03.759Z,6.50
2022-09-25T19:19:36.499Z,6.90
2022-09-25T19:22:08.484Z,6.93
2022-09-25T19:24:42.960Z,7.03
2022-09-25T19:27:14.712Z,8.77
2022-09-25T19:29:48.635Z,8.83
2022-09-25T19:32:22.213Z,10.13
2022-09-25T19:34:55.671Z,9.80
2022-09-25T19:37:30.653Z,11.30
2022-09-25T19:40:22.079Z,10.00
2022-09-25T19:42:53.583Z,11.13
2022-09-25T19:45:24.990Z,12.27
2022-09-25T19:47:56.502Z,13.17
2022-09-25T19:50:28.403Z,12.20
2022-09-25T19:53:01.451Z,14.67
2022-09-25T19:55:38.821Z,14.30
2022-09-25T19:58:11.023Z,14.67
2022-09-25T20:00:44.398Z,15.87
2022-09-25T20:03:15.610Z,15.93
2022-09-25T20:05:51.735Z,16.20
2022-09-25T20:08:24.565Z,15.23
2022-09-25T20:10:59.016Z,15.27
2022-09-25T20:13:31.289Z,11.87
2022-09-25T20:16:13.489Z,12.87
2022-09-25T20:18:44.937Z,13.83
2022-09-25T20:21:19.267Z,13.97
2022-09-25T20:23:53.979Z,14.90
2022-09-25T20:26:29.315Z,14.83
2022-09-25T20:29:02.145Z,15.20
2022-09-25T20:31:35.240Z,14.90
2022-09-25T20:34:06.436Z,15.90
2022-09-25T20:36:40.883Z,14.57
2022-09-25T20:39:15.594Z,15.97
2022-09-25T20:41:51.415Z,15.67
2022-09-25T20:44:22.397Z,15.03
2022-09-25T20:46:53.410Z,16.00
2022-09-25T20:49:24.374Z,16.20
2022-09-25T20:51:56.508Z,16.73
2022-09-25T20:54:29.309Z,18.40
2022-09-25T20:57:03.767Z,18.07
2022-09-25T20:59:35.493Z,17.57
2022-09-25T21:02:06.872Z,18.47
2022-09-25T21:04:39.605Z,16.87
2022-09-25T21:07:15.879Z,17.23
2022-09-25T21:09:48.956Z,17.57
2022-09-25T21:12:23.682Z,18.03
2022-09-25T21:14:55.563Z,17.67
2022-09-25T21:17:26.679Z,17.93
2022-09-25T21:19:57.988Z,19.17
2022-09-25T21:22:29.101Z,19.07
2022-09-25T21:25:01.928Z,19.93
2022-09-25T21:27:36.245Z,19.43
2022-09-25T21:30:07.782Z,19.77
2022-09-25T21:32:40.124Z,19.67
2022-09-25T21:35:12.996Z,18.90
2022-09-25T21:37:45.176Z,18.70
2022-09-25T21:40:17.873Z,19.10
2022-09-25T21:42:52.518Z,18.70
2022-09-25T21:45:24.414Z,19.43
2022-09-25T21:47:56.080Z,18.53
2022-09-25T21:50:27.522Z,18.40
2022-09-25T21:52:58.667Z,18.73
2022-09-25T21:55:29.829Z,18.30
2022-09-25T21:58:06.575Z,17.33
2022-09-25T22:00:38.406Z,17.87
2022-09-25T22:03:12.834Z,17.43
2022-09-25T22:05:50.336Z,16.73
2022-09-25T22:08:25.577Z,17.60
2022-09-25T22:10:59.360Z,17.53
2022-09-25T22:13:35.868Z,16.97
2022-09-25T22:16:09.182Z,16.37
2022-09-25T22:18:46.010Z,18.07
2022-09-25T22:21:19.772Z,17.63
2022-09-25T22:23:53.250Z,17.77
2022-09-25T22:26:25.671Z,17.10
2022-09-25T22:29:00.014Z,16.40
2022-09-25T22:31:32.779Z,16.60
2022-09-25T22:34:07.392Z,16.80
2022-09-25T22:36:40.126Z,17.47
2022-09-25T22:39:12.119Z,16.52
2022-09-25T22:41:43.969Z,16.35
2022-09-25T22:44:18.112Z,15.83
2022-09-25T22:46:50.021Z,16.43
2022-09-25T22:49:22.669Z,15.90
2022-09-25T22:51:54.300Z,15.55
2022-09-25T22:54:26.412Z,17.60
2022-09-25T22:56:57.888Z,17.45
2022-09-25T22:59:32.044Z,16.65
2022-09-25T23:02:03.880Z,17.45
2022-09-25T23:04:35.820Z,17.55
2022-09-25T23:07:08.226Z,17.58
2022-09-25T23:09:39.437Z,17.33
2022-09-25T23:12:11.801Z,16.88
2022-09-25T23:14:49.292Z,17.75
2022-09-25T23:17:21.124Z,17.85
2022-09-25T23:19:52.747Z,16.60
2022-09-25T23:22:23.782Z,16.57
2022-09-25T23:24:56.585Z,15.70
2022-09-25T23:27:29.025Z,17.93
2022-09-25T23:30:02.964Z,16.57
2022-09-25T23:32:35.178Z,16.20
2022-09-25T23:35:08.603Z,17.03
2022-09-25T23:37:39.964Z,15.63
2022-09-25T23:40:16.132Z,15.77
2022-09-25T23:42:47.641Z,15.63
2022-09-25T23:45:24.096Z,15.80
2022-09-25T23:47:55.260Z,15.63
2022-09-25T23:50:27.262Z,15.57
2022-09-25T23:52:59.187Z,15.37
2022-09-25T23:55:31.105Z,14.50
2022-09-25T23:58:05.131Z,15.17
